sensor_id;sensor_type;location;lat;lon;timestamp;P1;durP1;ratioP1;P2;durP2;ratioP2
4112;SDS011;2070;51.042;7.056;2023-06-14T00:02:13;9.53;;;5.00;;
4112;SDS011;2070;51.042;7.056;2023-06-14T00:04:39;5.50;;;4.07;;
4112;SDS011;2070;51.042;7.056;2023-06-14T00:07:06;12.03;;;4.77;;
4112;SDS011;2070;51.042;7.056;2023-06-14T00:09:34;8.57;;;3.60;;
4112;SDS011;2070;51.042;7.056;2023-06-14T00:12:00;5.87;;;4.60;;
4112;SDS011;2070;51.042;7.056;2023-06-14T00:14:25;7.33;;;4.27;;
4112;SDS011;2070;51.042;7.056;2023-06-14T00:16:50;7.00;;;4.70;;
4112;SDS011;2070;51.042;7.056;2023-06-14T00:19:17;6.33;;;4.97;;
4112;SDS011;2070;51.042;7.056;2023-06-14T00:21:42;7.70;;;4.60;;
4112;SDS011;2070;51.042;7.056;2023-06-14T00:24:08;6.60;;;4.53;;
4112;SDS011;2070;51.042;7.056;2023-06-14T00:26:33;6.67;;;4.10;;
4112;SDS011;2070;51.042;7.056;2023-06-14T00:28:58;5.33;;;4.47;;
4112;SDS011;2070;51.042;7.056;2023-06-14T00:31:23;6.77;;;3.80;;
4112;SDS011;2070;51.042;7.056;2023-06-14T00:33:49;6.20;;;3.90;;
4112;SDS011;2070;51.042;7.056;2023-06-14T00:36:14;5.07;;;4.13;;
4112;SDS011;2070;51.042;7.056;2023-06-14T00:38:39;4.67;;;4.20;;
4112;SDS011;2070;51.042;7.056;2023-06-14T00:41:04;5.90;;;4.63;;
4112;SDS011;2070;51.042;7.056;2023-06-14T00:43:30;5.77;;;4.63;;
4112;SDS011;2070;51.042;7.056;2023-06-14T00:45:55;6.50;;;3.97;;
4112;SDS011;2070;51.042;7.056;2023-06-14T00:48:20;5.17;;;4.67;;
4112;SDS011;2070;51.042;7.056;2023-06-14T00:50:46;7.50;;;4.37;;
4112;SDS011;2070;51.042;7.056;2023-06-14T00:53:13;6.60;;;4.80;;
4112;SDS011;2070;51.042;7.056;2023-06-14T00:55:40;6.73;;;3.67;;
4112;SDS011;2070;51.042;7.056;2023-06-14T00:58:05;9.07;;;4.70;;
4112;SDS011;2070;51.042;7.056;2023-06-14T01:00:31;5.00;;;4.40;;
4112;SDS011;2070;51.042;7.056;2023-06-14T01:02:56;5.27;;;3.87;;
4112;SDS011;2070;51.042;7.056;2023-06-14T01:05:22;4.73;;;3.50;;
4112;SDS011;2070;51.042;7.056;2023-06-14T01:12:46;7.67;;;4.40;;
4112;SDS011;2070;51.042;7.056;2023-06-14T01:15:13;5.10;;;3.90;;
4112;SDS011;2070;51.042;7.056;2023-06-14T01:17:39;4.17;;;3.70;;
4112;SDS011;2070;51.042;7.056;2023-06-14T01:20:08;8.10;;;4.87;;
4112;SDS011;2070;51.042;7.056;2023-06-14T01:22:37;8.67;;;4.07;;
4112;SDS011;2070;51.042;7.056;2023-06-14T01:25:02;5.10;;;3.60;;
4112;SDS011;2070;51.042;7.056;2023-06-14T01:27:28;4.30;;;3.20;;
4112;SDS011;2070;51.042;7.056;2023-06-14T01:29:54;4.63;;;3.73;;
4112;SDS011;2070;51.042;7.056;2023-06-14T01:32:21;9.83;;;4.00;;
4112;SDS011;2070;51.042;7.056;2023-06-14T01:34:46;4.70;;;3.73;;
4112;SDS011;2070;51.042;7.056;2023-06-14T01:37:11;6.70;;;4.30;;
4112;SDS011;2070;51.042;7.056;2023-06-14T01:39:38;6.63;;;4.90;;
4112;SDS011;2070;51.042;7.056;2023-06-14T01:42:03;7.13;;;4.20;;
4112;SDS011;2070;51.042;7.056;2023-06-14T01:44:29;4.70;;;3.60;;
4112;SDS011;2070;51.042;7.056;2023-06-14T01:46:55;4.50;;;3.73;;
4112;SDS011;2070;51.042;7.056;2023-06-14T01:49:20;14.60;;;5.20;;
4112;SDS011;2070;51.042;7.056;2023-06-14T01:51:46;5.47;;;4.97;;
4112;SDS011;2070;51.042;7.056;2023-06-14T01:54:11;5.00;;;3.60;;
4112;SDS011;2070;51.042;7.056;2023-06-14T01:56:36;4.30;;;3.50;;
4112;SDS011;2070;51.042;7.056;2023-06-14T01:59:01;4.97;;;3.80;;
4112;SDS011;2070;51.042;7.056;2023-06-14T02:01:26;6.83;;;4.07;;
4112;SDS011;2070;51.042;7.056;2023-06-14T02:03:51;3.60;;;3.30;;
4112;SDS011;2070;51.042;7.056;2023-06-14T02:06:18;11.80;;;3.70;;
4112;SDS011;2070;51.042;7.056;2023-06-14T02:08:43;3.73;;;3.10;;
4112;SDS011;2070;51.042;7.056;2023-06-14T02:11:09;7.93;;;4.20;;
4112;SDS011;2070;51.042;7.056;2023-06-14T02:13:35;8.47;;;3.57;;
4112;SDS011;2070;51.042;7.056;2023-06-14T02:16:00;4.13;;;3.57;;
4112;SDS011;2070;51.042;7.056;2023-06-14T02:18:25;4.47;;;4.00;;
4112;SDS011;2070;51.042;7.056;2023-06-14T02:20:51;12.00;;;3.50;;
4112;SDS011;2070;51.042;7.056;2023-06-14T02:23:16;4.67;;;4.23;;
4112;SDS011;2070;51.042;7.056;2023-06-14T02:25:41;3.63;;;3.30;;
4112;SDS011;2070;51.042;7.056;2023-06-14T02:28:08;3.37;;;3.07;;
4112;SDS011;2070;51.042;7.056;2023-06-14T02:30:33;4.30;;;3.30;;
4112;SDS011;2070;51.042;7.056;2023-06-14T02:32:58;5.03;;;3.83;;
4112;SDS011;2070;51.042;7.056;2023-06-14T02:35:24;6.20;;;3.97;;
4112;SDS011;2070;51.042;7.056;2023-06-14T02:37:51;7.53;;;3.50;;
4112;SDS011;2070;51.042;7.056;2023-06-14T02:40:17;5.50;;;3.87;;
4112;SDS011;2070;51.042;7.056;2023-06-14T02:42:42;5.10;;;3.80;;
4112;SDS011;2070;51.042;7.056;2023-06-14T02:45:08;5.70;;;3.43;;
4112;SDS011;2070;51.042;7.056;2023-06-14T02:47:33;3.90;;;3.50;;
4112;SDS011;2070;51.042;7.056;2023-06-14T02:49:58;6.33;;;3.43;;
4112;SDS011;2070;51.042;7.056;2023-06-14T02:52:23;4.93;;;3.73;;
4112;SDS011;2070;51.042;7.056;2023-06-14T02:54:50;3.93;;;3.53;;
4112;SDS011;2070;51.042;7.056;2023-06-14T02:57:15;4.97;;;4.47;;
4112;SDS011;2070;51.042;7.056;2023-06-14T02:59:41;3.97;;;3.13;;
4112;SDS011;2070;51.042;7.056;2023-06-14T03:02:06;3.70;;;3.37;;
4112;SDS011;2070;51.042;7.056;2023-06-14T03:04:31;5.00;;;4.30;;
4112;SDS011;2070;51.042;7.056;2023-06-14T03:07:02;9.27;;;4.17;;
4112;SDS011;2070;51.042;7.056;2023-06-14T03:09:34;3.30;;;2.40;;
4112;SDS011;2070;51.042;7.056;2023-06-14T03:11:59;4.30;;;3.97;;
4112;SDS011;2070;51.042;7.056;2023-06-14T03:14:24;12.13;;;3.60;;
4112;SDS011;2070;51.042;7.056;2023-06-14T03:16:49;9.87;;;3.80;;
4112;SDS011;2070;51.042;7.056;2023-06-14T03:19:15;7.30;;;4.13;;
4112;SDS011;2070;51.042;7.056;2023-06-14T03:21:40;3.50;;;3.17;;
4112;SDS011;2070;51.042;7.056;2023-06-14T03:24:09;4.23;;;3.50;;
4112;SDS011;2070;51.042;7.056;2023-06-14T03:26:34;10.27;;;4.20;;
4112;SDS011;2070;51.042;7.056;2023-06-14T03:29:01;4.70;;;3.33;;
4112;SDS011;2070;51.042;7.056;2023-06-14T03:31:28;3.50;;;3.20;;
4112;SDS011;2070;51.042;7.056;2023-06-14T03:33:57;3.67;;;3.37;;
4112;SDS011;2070;51.042;7.056;2023-06-14T03:36:22;3.43;;;3.13;;
4112;SDS011;2070;51.042;7.056;2023-06-14T03:38:48;3.63;;;3.33;;
4112;SDS011;2070;51.042;7.056;2023-06-14T03:41:13;8.50;;;3.20;;
4112;SDS011;2070;51.042;7.056;2023-06-14T03:43:38;6.23;;;3.60;;
4112;SDS011;2070;51.042;7.056;2023-06-14T03:46:03;6.80;;;3.30;;
4112;SDS011;2070;51.042;7.056;2023-06-14T03:48:28;5.10;;;3.57;;
4112;SDS011;2070;51.042;7.056;2023-06-14T03:50:53;6.00;;;3.80;;
4112;SDS011;2070;51.042;7.056;2023-06-14T03:53:20;5.10;;;4.03;;
4112;SDS011;2070;51.042;7.056;2023-06-14T03:55:48;7.53;;;4.57;;
4112;SDS011;2070;51.042;7.056;2023-06-14T03:58:13;8.73;;;3.80;;
4112;SDS011;2070;51.042;7.056;2023-06-14T04:00:39;8.10;;;4.67;;
4112;SDS011;2070;51.042;7.056;2023-06-14T04:03:05;6.83;;;4.40;;
4112;SDS011;2070;51.042;7.056;2023-06-14T04:05:30;6.97;;;3.67;;
4112;SDS011;2070;51.042;7.056;2023-06-14T04:07:56;6.27;;;4.20;;
4112;SDS011;2070;51.042;7.056;2023-06-14T04:10:22;4.03;;;3.20;;
4112;SDS011;2070;51.042;7.056;2023-06-14T04:12:47;6.00;;;3.53;;
4112;SDS011;2070;51.042;7.056;2023-06-14T04:15:12;11.20;;;4.70;;
4112;SDS011;2070;51.042;7.056;2023-06-14T04:17:38;7.63;;;3.73;;
4112;SDS011;2070;51.042;7.056;2023-06-14T04:20:04;10.93;;;4.60;;
4112;SDS011;2070;51.042;7.056;2023-06-14T04:22:31;4.97;;;3.60;;
4112;SDS011;2070;51.042;7.056;2023-06-14T04:24:56;5.10;;;3.23;;
4112;SDS011;2070;51.042;7.056;2023-06-14T04:27:22;22.40;;;3.70;;
4112;SDS011;2070;51.042;7.056;2023-06-14T04:29:53;10.33;;;3.27;;
4112;SDS011;2070;51.042;7.056;2023-06-14T04:32:23;5.33;;;3.73;;
4112;SDS011;2070;51.042;7.056;2023-06-14T04:34:50;6.20;;;3.33;;
4112;SDS011;2070;51.042;7.056;2023-06-14T04:37:18;3.63;;;3.30;;
4112;SDS011;2070;51.042;7.056;2023-06-14T04:39:45;5.83;;;3.97;;
4112;SDS011;2070;51.042;7.056;2023-06-14T04:42:11;4.83;;;3.60;;
4112;SDS011;2070;51.042;7.056;2023-06-14T04:44:36;2.70;;;2.50;;
4112;SDS011;2070;51.042;7.056;2023-06-14T04:47:04;7.33;;;3.53;;
4112;SDS011;2070;51.042;7.056;2023-06-14T04:49:31;4.20;;;3.53;;
4112;SDS011;2070;51.042;7.056;2023-06-14T04:51:59;5.50;;;3.57;;
4112;SDS011;2070;51.042;7.056;2023-06-14T04:54:26;6.93;;;3.50;;
4112;SDS011;2070;51.042;7.056;2023-06-14T04:56:51;4.77;;;3.53;;
4112;SDS011;2070;51.042;7.056;2023-06-14T04:59:18;3.20;;;3.00;;
4112;SDS011;2070;51.042;7.056;2023-06-14T05:01:43;3.87;;;3.27;;
4112;SDS011;2070;51.042;7.056;2023-06-14T05:04:17;9.53;;;3.87;;
4112;SDS011;2070;51.042;7.056;2023-06-14T05:06:43;10.93;;;4.37;;
4112;SDS011;2070;51.042;7.056;2023-06-14T05:09:13;5.77;;;3.80;;
4112;SDS011;2070;51.042;7.056;2023-06-14T05:11:39;7.80;;;3.63;;
4112;SDS011;2070;51.042;7.056;2023-06-14T05:14:04;3.90;;;3.60;;
4112;SDS011;2070;51.042;7.056;2023-06-14T05:16:31;6.13;;;2.87;;
4112;SDS011;2070;51.042;7.056;2023-06-14T05:18:56;4.03;;;3.23;;
4112;SDS011;2070;51.042;7.056;2023-06-14T05:21:22;4.23;;;2.63;;
4112;SDS011;2070;51.042;7.056;2023-06-14T05:23:47;5.67;;;3.23;;
4112;SDS011;2070;51.042;7.056;2023-06-14T05:26:12;6.63;;;3.50;;
4112;SDS011;2070;51.042;7.056;2023-06-14T05:28:38;6.20;;;4.23;;
4112;SDS011;2070;51.042;7.056;2023-06-14T05:31:03;8.20;;;3.50;;
4112;SDS011;2070;51.042;7.056;2023-06-14T05:33:28;5.27;;;3.67;;
4112;SDS011;2070;51.042;7.056;2023-06-14T05:35:54;4.93;;;3.10;;
4112;SDS011;2070;51.042;7.056;2023-06-14T05:38:19;6.10;;;3.60;;
4112;SDS011;2070;51.042;7.056;2023-06-14T05:40:44;5.00;;;2.93;;
4112;SDS011;2070;51.042;7.056;2023-06-14T05:43:10;5.63;;;3.53;;
4112;SDS011;2070;51.042;7.056;2023-06-14T05:45:35;3.70;;;3.23;;
4112;SDS011;2070;51.042;7.056;2023-06-14T05:48:00;6.37;;;3.00;;
4112;SDS011;2070;51.042;7.056;2023-06-14T05:50:25;9.67;;;2.80;;
4112;SDS011;2070;51.042;7.056;2023-06-14T05:52:51;9.33;;;3.53;;
4112;SDS011;2070;51.042;7.056;2023-06-14T05:55:16;4.33;;;2.67;;
4112;SDS011;2070;51.042;7.056;2023-06-14T05:57:41;5.10;;;3.07;;
4112;SDS011;2070;51.042;7.056;2023-06-14T06:00:07;5.00;;;2.70;;
4112;SDS011;2070;51.042;7.056;2023-06-14T06:02:35;6.20;;;3.20;;
4112;SDS011;2070;51.042;7.056;2023-06-14T06:05:00;2.90;;;2.70;;
4112;SDS011;2070;51.042;7.056;2023-06-14T06:07:26;3.87;;;3.30;;
4112;SDS011;2070;51.042;7.056;2023-06-14T06:09:51;6.50;;;3.13;;
4112;SDS011;2070;51.042;7.056;2023-06-14T06:12:16;5.73;;;3.77;;
4112;SDS011;2070;51.042;7.056;2023-06-14T06:14:41;2.37;;;2.17;;
4112;SDS011;2070;51.042;7.056;2023-06-14T06:17:06;8.47;;;3.10;;
4112;SDS011;2070;51.042;7.056;2023-06-14T06:19:32;3.33;;;2.67;;
4112;SDS011;2070;51.042;7.056;2023-06-14T06:21:57;6.20;;;3.60;;
4112;SDS011;2070;51.042;7.056;2023-06-14T06:24:22;4.60;;;3.20;;
4112;SDS011;2070;51.042;7.056;2023-06-14T06:26:47;5.07;;;3.63;;
4112;SDS011;2070;51.042;7.056;2023-06-14T06:29:13;4.80;;;2.70;;
4112;SDS011;2070;51.042;7.056;2023-06-14T06:31:39;9.47;;;2.90;;
4112;SDS011;2070;51.042;7.056;2023-06-14T06:34:04;5.97;;;3.07;;
4112;SDS011;2070;51.042;7.056;2023-06-14T06:36:29;22.47;;;3.50;;
4112;SDS011;2070;51.042;7.056;2023-06-14T06:38:54;4.63;;;2.80;;
4112;SDS011;2070;51.042;7.056;2023-06-14T06:41:19;2.40;;;2.20;;
4112;SDS011;2070;51.042;7.056;2023-06-14T06:43:45;3.03;;;2.70;;
4112;SDS011;2070;51.042;7.056;2023-06-14T06:46:10;3.30;;;2.23;;
4112;SDS011;2070;51.042;7.056;2023-06-14T06:48:35;5.57;;;3.27;;
4112;SDS011;2070;51.042;7.056;2023-06-14T06:51:00;3.87;;;3.30;;
4112;SDS011;2070;51.042;7.056;2023-06-14T06:53:26;2.30;;;2.10;;
4112;SDS011;2070;51.042;7.056;2023-06-14T06:55:51;3.93;;;3.20;;
4112;SDS011;2070;51.042;7.056;2023-06-14T06:58:16;6.20;;;2.50;;
4112;SDS011;2070;51.042;7.056;2023-06-14T07:00:41;3.53;;;2.00;;
4112;SDS011;2070;51.042;7.056;2023-06-14T07:03:06;10.63;;;2.30;;
4112;SDS011;2070;51.042;7.056;2023-06-14T07:05:32;4.03;;;2.43;;
4112;SDS011;2070;51.042;7.056;2023-06-14T07:07:57;4.53;;;2.17;;
4112;SDS011;2070;51.042;7.056;2023-06-14T07:10:22;11.20;;;2.77;;
4112;SDS011;2070;51.042;7.056;2023-06-14T07:12:49;1.97;;;1.70;;
4112;SDS011;2070;51.042;7.056;2023-06-14T07:15:14;10.60;;;2.70;;
4112;SDS011;2070;51.042;7.056;2023-06-14T07:17:40;5.23;;;2.70;;
4112;SDS011;2070;51.042;7.056;2023-06-14T07:20:05;3.93;;;2.13;;
4112;SDS011;2070;51.042;7.056;2023-06-14T07:22:36;4.50;;;1.90;;
4112;SDS011;2070;51.042;7.056;2023-06-14T07:25:01;2.23;;;1.80;;
4112;SDS011;2070;51.042;7.056;2023-06-14T07:27:27;7.83;;;2.20;;
4112;SDS011;2070;51.042;7.056;2023-06-14T07:29:53;3.03;;;2.13;;
4112;SDS011;2070;51.042;7.056;2023-06-14T07:32:18;11.83;;;3.20;;
4112;SDS011;2070;51.042;7.056;2023-06-14T07:34:43;2.80;;;1.90;;
4112;SDS011;2070;51.042;7.056;2023-06-14T07:37:08;3.90;;;2.40;;
4112;SDS011;2070;51.042;7.056;2023-06-14T07:39:33;3.80;;;2.50;;
4112;SDS011;2070;51.042;7.056;2023-06-14T07:41:59;4.00;;;2.33;;
4112;SDS011;2070;51.042;7.056;2023-06-14T07:44:24;8.30;;;1.50;;
4112;SDS011;2070;51.042;7.056;2023-06-14T07:46:50;2.60;;;1.57;;
4112;SDS011;2070;51.042;7.056;2023-06-14T07:49:15;4.60;;;2.00;;
4112;SDS011;2070;51.042;7.056;2023-06-14T07:51:40;4.77;;;1.90;;
4112;SDS011;2070;51.042;7.056;2023-06-14T07:54:05;4.73;;;2.00;;
4112;SDS011;2070;51.042;7.056;2023-06-14T07:56:32;6.50;;;2.10;;
4112;SDS011;2070;51.042;7.056;2023-06-14T07:58:57;6.97;;;2.20;;
4112;SDS011;2070;51.042;7.056;2023-06-14T08:01:22;5.67;;;2.50;;
4112;SDS011;2070;51.042;7.056;2023-06-14T08:03:50;5.57;;;2.53;;
4112;SDS011;2070;51.042;7.056;2023-06-14T08:06:15;10.10;;;1.73;;
4112;SDS011;2070;51.042;7.056;2023-06-14T08:08:40;3.07;;;1.93;;
4112;SDS011;2070;51.042;7.056;2023-06-14T08:11:05;3.93;;;2.03;;
4112;SDS011;2070;51.042;7.056;2023-06-14T08:13:31;7.37;;;2.43;;
4112;SDS011;2070;51.042;7.056;2023-06-14T08:15:56;8.10;;;3.00;;
4112;SDS011;2070;51.042;7.056;2023-06-14T08:18:22;4.33;;;2.00;;
4112;SDS011;2070;51.042;7.056;2023-06-14T08:20:47;7.10;;;2.63;;
4112;SDS011;2070;51.042;7.056;2023-06-14T08:23:12;9.20;;;2.90;;
4112;SDS011;2070;51.042;7.056;2023-06-14T08:25:38;9.33;;;2.40;;
4112;SDS011;2070;51.042;7.056;2023-06-14T08:28:03;8.70;;;2.83;;
4112;SDS011;2070;51.042;7.056;2023-06-14T08:30:28;9.47;;;2.60;;
4112;SDS011;2070;51.042;7.056;2023-06-14T08:32:53;4.13;;;2.10;;
4112;SDS011;2070;51.042;7.056;2023-06-14T08:35:21;6.93;;;3.13;;
4112;SDS011;2070;51.042;7.056;2023-06-14T08:37:46;8.83;;;3.23;;
4112;SDS011;2070;51.042;7.056;2023-06-14T08:40:22;13.47;;;2.63;;
4112;SDS011;2070;51.042;7.056;2023-06-14T08:42:52;4.23;;;1.67;;
4112;SDS011;2070;51.042;7.056;2023-06-14T08:45:18;13.13;;;2.80;;
4112;SDS011;2070;51.042;7.056;2023-06-14T08:47:43;12.70;;;3.07;;
4112;SDS011;2070;51.042;7.056;2023-06-14T08:50:10;7.27;;;2.30;;
4112;SDS011;2070;51.042;7.056;2023-06-14T08:52:37;8.53;;;2.60;;
4112;SDS011;2070;51.042;7.056;2023-06-14T08:55:10;5.93;;;2.00;;
4112;SDS011;2070;51.042;7.056;2023-06-14T08:57:36;8.27;;;2.87;;
4112;SDS011;2070;51.042;7.056;2023-06-14T09:00:02;5.57;;;2.17;;
4112;SDS011;2070;51.042;7.056;2023-06-14T09:02:35;10.30;;;3.47;;
4112;SDS011;2070;51.042;7.056;2023-06-14T09:05:00;7.83;;;1.90;;
4112;SDS011;2070;51.042;7.056;2023-06-14T09:07:25;6.80;;;2.30;;
4112;SDS011;2070;51.042;7.056;2023-06-14T09:10:04;11.10;;;1.93;;
4112;SDS011;2070;51.042;7.056;2023-06-14T09:12:30;17.33;;;5.00;;
4112;SDS011;2070;51.042;7.056;2023-06-14T09:14:55;8.03;;;2.23;;
4112;SDS011;2070;51.042;7.056;2023-06-14T09:17:21;14.33;;;2.97;;
4112;SDS011;2070;51.042;7.056;2023-06-14T09:19:48;7.97;;;2.33;;
4112;SDS011;2070;51.042;7.056;2023-06-14T09:22:13;10.70;;;2.60;;
4112;SDS011;2070;51.042;7.056;2023-06-14T09:24:38;5.60;;;1.80;;
4112;SDS011;2070;51.042;7.056;2023-06-14T09:27:03;9.57;;;2.53;;
4112;SDS011;2070;51.042;7.056;2023-06-14T09:29:28;13.03;;;2.90;;
4112;SDS011;2070;51.042;7.056;2023-06-14T09:31:55;10.43;;;2.67;;
4112;SDS011;2070;51.042;7.056;2023-06-14T09:34:21;11.17;;;2.83;;
4112;SDS011;2070;51.042;7.056;2023-06-14T09:36:48;10.13;;;2.60;;
4112;SDS011;2070;51.042;7.056;2023-06-14T09:39:16;10.97;;;3.20;;
4112;SDS011;2070;51.042;7.056;2023-06-14T09:41:42;6.80;;;2.03;;
4112;SDS011;2070;51.042;7.056;2023-06-14T09:44:08;11.67;;;2.83;;
4112;SDS011;2070;51.042;7.056;2023-06-14T09:46:34;8.67;;;2.23;;
4112;SDS011;2070;51.042;7.056;2023-06-14T09:49:00;6.83;;;2.03;;
4112;SDS011;2070;51.042;7.056;2023-06-14T09:51:27;7.50;;;1.97;;
4112;SDS011;2070;51.042;7.056;2023-06-14T09:53:52;10.97;;;3.13;;
4112;SDS011;2070;51.042;7.056;2023-06-14T09:56:26;10.27;;;2.93;;
4112;SDS011;2070;51.042;7.056;2023-06-14T09:58:54;5.90;;;2.27;;
4112;SDS011;2070;51.042;7.056;2023-06-14T10:01:20;18.67;;;3.60;;
4112;SDS011;2070;51.042;7.056;2023-06-14T10:03:46;8.33;;;2.30;;
4112;SDS011;2070;51.042;7.056;2023-06-14T10:06:13;6.60;;;2.20;;
4112;SDS011;2070;51.042;7.056;2023-06-14T10:08:39;9.90;;;2.87;;
4112;SDS011;2070;51.042;7.056;2023-06-14T10:11:05;8.60;;;2.80;;
4112;SDS011;2070;51.042;7.056;2023-06-14T10:13:31;6.37;;;2.00;;
4112;SDS011;2070;51.042;7.056;2023-06-14T10:23:41;8.43;;;2.57;;
4112;SDS011;2070;51.042;7.056;2023-06-14T10:26:07;6.63;;;1.97;;
4112;SDS011;2070;51.042;7.056;2023-06-14T10:28:32;6.70;;;1.93;;
4112;SDS011;2070;51.042;7.056;2023-06-14T10:31:05;18.00;;;3.40;;
4112;SDS011;2070;51.042;7.056;2023-06-14T10:33:31;11.33;;;2.17;;
4112;SDS011;2070;51.042;7.056;2023-06-14T10:38:40;14.30;;;2.50;;
4112;SDS011;2070;51.042;7.056;2023-06-14T10:41:06;7.17;;;2.23;;
4112;SDS011;2070;51.042;7.056;2023-06-14T10:43:32;8.17;;;2.60;;
4112;SDS011;2070;51.042;7.056;2023-06-14T10:46:16;9.03;;;2.77;;
4112;SDS011;2070;51.042;7.056;2023-06-14T10:48:43;8.47;;;2.83;;
4112;SDS011;2070;51.042;7.056;2023-06-14T10:51:19;8.67;;;2.83;;
4112;SDS011;2070;51.042;7.056;2023-06-14T10:53:48;5.80;;;2.47;;
4112;SDS011;2070;51.042;7.056;2023-06-14T10:56:23;5.63;;;2.00;;
4112;SDS011;2070;51.042;7.056;2023-06-14T10:58:49;11.37;;;2.90;;
4112;SDS011;2070;51.042;7.056;2023-06-14T11:01:15;12.43;;;2.50;;
4112;SDS011;2070;51.042;7.056;2023-06-14T11:03:50;8.13;;;2.30;;
4112;SDS011;2070;51.042;7.056;2023-06-14T11:06:16;4.10;;;2.10;;
4112;SDS011;2070;51.042;7.056;2023-06-14T11:09:04;6.43;;;2.20;;
4112;SDS011;2070;51.042;7.056;2023-06-14T11:11:35;10.73;;;1.63;;
4112;SDS011;2070;51.042;7.056;2023-06-14T11:14:01;9.03;;;2.30;;
4112;SDS011;2070;51.042;7.056;2023-06-14T11:16:27;5.50;;;1.90;;
4112;SDS011;2070;51.042;7.056;2023-06-14T11:18:53;7.03;;;2.50;;
4112;SDS011;2070;51.042;7.056;2023-06-14T11:21:18;17.90;;;2.33;;
4112;SDS011;2070;51.042;7.056;2023-06-14T11:23:50;9.40;;;2.80;;
4112;SDS011;2070;51.042;7.056;2023-06-14T11:26:16;6.57;;;2.90;;
4112;SDS011;2070;51.042;7.056;2023-06-14T11:28:48;5.87;;;3.03;;
4112;SDS011;2070;51.042;7.056;2023-06-14T11:31:19;5.97;;;2.87;;
4112;SDS011;2070;51.042;7.056;2023-06-14T11:33:49;8.93;;;2.10;;
4112;SDS011;2070;51.042;7.056;2023-06-14T11:36:15;8.87;;;2.70;;
4112;SDS011;2070;51.042;7.056;2023-06-14T11:38:40;5.57;;;2.70;;
4112;SDS011;2070;51.042;7.056;2023-06-14T11:41:05;4.60;;;2.60;;
4112;SDS011;2070;51.042;7.056;2023-06-14T11:43:31;6.40;;;1.93;;
4112;SDS011;2070;51.042;7.056;2023-06-14T11:45:58;3.63;;;1.70;;
4112;SDS011;2070;51.042;7.056;2023-06-14T11:48:23;6.47;;;2.13;;
4112;SDS011;2070;51.042;7.056;2023-06-14T11:51:00;8.20;;;1.80;;
4112;SDS011;2070;51.042;7.056;2023-06-14T11:53:25;4.77;;;1.87;;
4112;SDS011;2070;51.042;7.056;2023-06-14T11:55:51;7.57;;;2.37;;
4112;SDS011;2070;51.042;7.056;2023-06-14T11:58:16;7.70;;;2.30;;
4112;SDS011;2070;51.042;7.056;2023-06-14T12:00:41;6.90;;;2.00;;
4112;SDS011;2070;51.042;7.056;2023-06-14T12:03:07;7.17;;;1.93;;
4112;SDS011;2070;51.042;7.056;2023-06-14T12:05:32;6.97;;;2.30;;
4112;SDS011;2070;51.042;7.056;2023-06-14T12:07:59;7.90;;;2.43;;
4112;SDS011;2070;51.042;7.056;2023-06-14T12:10:25;11.57;;;2.40;;
4112;SDS011;2070;51.042;7.056;2023-06-14T12:12:50;3.37;;;1.47;;
4112;SDS011;2070;51.042;7.056;2023-06-14T12:15:15;6.50;;;1.83;;
4112;SDS011;2070;51.042;7.056;2023-06-14T12:17:41;6.43;;;2.00;;
4112;SDS011;2070;51.042;7.056;2023-06-14T12:20:11;10.13;;;2.60;;
4112;SDS011;2070;51.042;7.056;2023-06-14T12:22:38;3.50;;;1.67;;
4112;SDS011;2070;51.042;7.056;2023-06-14T12:25:04;3.43;;;1.70;;
4112;SDS011;2070;51.042;7.056;2023-06-14T12:27:29;8.63;;;4.30;;
4112;SDS011;2070;51.042;7.056;2023-06-14T12:29:59;10.20;;;2.33;;
4112;SDS011;2070;51.042;7.056;2023-06-14T12:32:24;4.70;;;1.87;;
4112;SDS011;2070;51.042;7.056;2023-06-14T12:34:49;7.23;;;2.30;;
4112;SDS011;2070;51.042;7.056;2023-06-14T12:37:14;6.60;;;2.10;;
4112;SDS011;2070;51.042;7.056;2023-06-14T12:39:39;7.40;;;2.20;;
4112;SDS011;2070;51.042;7.056;2023-06-14T12:42:05;3.63;;;1.50;;
4112;SDS011;2070;51.042;7.056;2023-06-14T12:44:30;8.23;;;2.50;;
4112;SDS011;2070;51.042;7.056;2023-06-14T12:46:55;12.87;;;2.30;;
4112;SDS011;2070;51.042;7.056;2023-06-14T12:49:21;6.63;;;2.10;;
4112;SDS011;2070;51.042;7.056;2023-06-14T12:51:46;11.93;;;3.53;;
4112;SDS011;2070;51.042;7.056;2023-06-14T12:54:11;12.40;;;2.97;;
4112;SDS011;2070;51.042;7.056;2023-06-14T12:56:37;4.70;;;1.87;;
4112;SDS011;2070;51.042;7.056;2023-06-14T12:59:02;5.10;;;1.97;;
4112;SDS011;2070;51.042;7.056;2023-06-14T13:01:27;5.27;;;2.07;;
4112;SDS011;2070;51.042;7.056;2023-06-14T13:03:52;7.10;;;2.20;;
4112;SDS011;2070;51.042;7.056;2023-06-14T13:06:22;5.73;;;1.53;;
4112;SDS011;2070;51.042;7.056;2023-06-14T13:08:47;9.90;;;2.07;;
4112;SDS011;2070;51.042;7.056;2023-06-14T13:11:13;8.40;;;1.90;;
4112;SDS011;2070;51.042;7.056;2023-06-14T13:13:38;7.43;;;2.43;;
4112;SDS011;2070;51.042;7.056;2023-06-14T13:16:03;4.73;;;1.87;;
4112;SDS011;2070;51.042;7.056;2023-06-14T13:18:28;6.20;;;1.97;;
4112;SDS011;2070;51.042;7.056;2023-06-14T13:20:54;7.43;;;2.50;;
4112;SDS011;2070;51.042;7.056;2023-06-14T13:23:19;3.43;;;1.87;;
4112;SDS011;2070;51.042;7.056;2023-06-14T13:25:44;8.80;;;1.70;;
4112;SDS011;2070;51.042;7.056;2023-06-14T13:28:09;8.90;;;2.80;;
4112;SDS011;2070;51.042;7.056;2023-06-14T13:30:35;6.87;;;2.37;;
4112;SDS011;2070;51.042;7.056;2023-06-14T13:33:00;4.20;;;1.83;;
4112;SDS011;2070;51.042;7.056;2023-06-14T13:35:26;8.83;;;2.50;;
4112;SDS011;2070;51.042;7.056;2023-06-14T13:37:51;5.23;;;1.97;;
4112;SDS011;2070;51.042;7.056;2023-06-14T13:40:17;5.50;;;2.03;;
4112;SDS011;2070;51.042;7.056;2023-06-14T13:42:42;12.03;;;2.60;;
4112;SDS011;2070;51.042;7.056;2023-06-14T13:45:08;7.53;;;2.60;;
4112;SDS011;2070;51.042;7.056;2023-06-14T13:47:33;10.87;;;2.70;;
4112;SDS011;2070;51.042;7.056;2023-06-14T13:49:58;7.53;;;2.30;;
4112;SDS011;2070;51.042;7.056;2023-06-14T13:52:24;6.80;;;2.60;;
4112;SDS011;2070;51.042;7.056;2023-06-14T13:54:49;7.10;;;2.50;;
4112;SDS011;2070;51.042;7.056;2023-06-14T13:57:15;7.97;;;2.67;;
4112;SDS011;2070;51.042;7.056;2023-06-14T13:59:40;9.10;;;2.70;;
4112;SDS011;2070;51.042;7.056;2023-06-14T14:02:06;5.33;;;2.33;;
4112;SDS011;2070;51.042;7.056;2023-06-14T14:04:31;6.17;;;2.40;;
4112;SDS011;2070;51.042;7.056;2023-06-14T14:06:56;8.63;;;2.77;;
4112;SDS011;2070;51.042;7.056;2023-06-14T14:09:21;8.87;;;2.57;;
4112;SDS011;2070;51.042;7.056;2023-06-14T14:11:47;7.10;;;2.53;;
4112;SDS011;2070;51.042;7.056;2023-06-14T14:14:13;9.87;;;3.40;;
4112;SDS011;2070;51.042;7.056;2023-06-14T14:16:38;10.53;;;3.50;;
4112;SDS011;2070;51.042;7.056;2023-06-14T14:19:04;5.30;;;2.70;;
4112;SDS011;2070;51.042;7.056;2023-06-14T14:21:29;12.60;;;2.43;;
4112;SDS011;2070;51.042;7.056;2023-06-14T14:23:54;6.10;;;2.70;;
4112;SDS011;2070;51.042;7.056;2023-06-14T14:26:20;3.63;;;1.90;;
4112;SDS011;2070;51.042;7.056;2023-06-14T14:28:45;3.20;;;1.90;;
4112;SDS011;2070;51.042;7.056;2023-06-14T14:31:10;9.50;;;2.77;;
4112;SDS011;2070;51.042;7.056;2023-06-14T14:33:36;6.63;;;2.73;;
4112;SDS011;2070;51.042;7.056;2023-06-14T14:36:01;3.37;;;2.00;;
4112;SDS011;2070;51.042;7.056;2023-06-14T14:38:28;4.27;;;2.07;;
4112;SDS011;2070;51.042;7.056;2023-06-14T14:40:54;7.77;;;2.27;;
4112;SDS011;2070;51.042;7.056;2023-06-14T14:43:19;3.50;;;2.00;;
4112;SDS011;2070;51.042;7.056;2023-06-14T14:45:44;7.43;;;2.73;;
4112;SDS011;2070;51.042;7.056;2023-06-14T14:48:09;5.50;;;2.20;;
4112;SDS011;2070;51.042;7.056;2023-06-14T14:50:34;8.70;;;2.60;;
4112;SDS011;2070;51.042;7.056;2023-06-14T14:53:00;7.33;;;2.37;;
4112;SDS011;2070;51.042;7.056;2023-06-14T14:55:25;3.83;;;1.93;;
4112;SDS011;2070;51.042;7.056;2023-06-14T14:57:50;6.30;;;2.00;;
4112;SDS011;2070;51.042;7.056;2023-06-14T15:00:16;13.00;;;2.90;;
4112;SDS011;2070;51.042;7.056;2023-06-14T15:02:41;7.60;;;2.80;;
4112;SDS011;2070;51.042;7.056;2023-06-14T15:05:06;4.47;;;2.27;;
4112;SDS011;2070;51.042;7.056;2023-06-14T15:07:31;29.03;;;4.27;;
4112;SDS011;2070;51.042;7.056;2023-06-14T15:09:58;4.70;;;2.63;;
4112;SDS011;2070;51.042;7.056;2023-06-14T15:12:24;3.20;;;1.90;;
4112;SDS011;2070;51.042;7.056;2023-06-14T15:14:50;1.80;;;1.53;;
4112;SDS011;2070;51.042;7.056;2023-06-14T15:17:15;2.60;;;1.90;;
4112;SDS011;2070;51.042;7.056;2023-06-14T15:19:41;3.40;;;1.80;;
4112;SDS011;2070;51.042;7.056;2023-06-14T15:22:06;4.13;;;2.23;;